createdAt,value
2019-02-12T00:01:16.335Z,4.80
2019-02-12T00:03:43.970Z,4.93
2019-02-12T00:06:13.281Z,4.97
2019-02-12T00:08:40.673Z,5.70
2019-02-12T00:11:09.105Z,4.93
2019-02-12T00:13:36.627Z,5.17
2019-02-12T00:16:03.998Z,4.40
2019-02-12T00:18:31.553Z,4.17
2019-02-12T00:20:59.017Z,4.07
2019-02-12T00:23:26.504Z,4.73
2019-02-12T00:25:53.989Z,4.63
2019-02-12T00:28:21.484Z,4.27
2019-02-12T00:30:49.031Z,4.43
2019-02-12T00:33:18.556Z,4.07
2019-02-12T00:35:46.038Z,4.70
2019-02-12T00:38:13.689Z,4.67
2019-02-12T00:40:42.461Z,4.57
2019-02-12T00:43:11.554Z,4.77
2019-02-12T00:45:39.348Z,6.97
2019-02-12T00:48:06.831Z,5.10
2019-02-12T00:50:34.342Z,4.63
2019-02-12T00:53:02.059Z,5.00
2019-02-12T00:55:29.585Z,5.10
2019-02-12T00:57:57.205Z,5.17
2019-02-12T01:00:24.960Z,4.40
2019-02-12T01:02:52.459Z,4.70
2019-02-12T01:05:19.956Z,5.00
2019-02-12T01:07:48.507Z,4.30
2019-02-12T01:10:16.017Z,4.33
2019-02-12T01:12:43.523Z,4.40
2019-02-12T01:15:12.152Z,4.33
2019-02-12T01:17:39.684Z,4.63
2019-02-12T01:20:09.311Z,4.63
2019-02-12T01:22:36.840Z,4.67
2019-02-12T01:25:05.291Z,5.43
2019-02-12T01:27:32.624Z,5.87
2019-02-12T01:30:00.232Z,5.73
2019-02-12T01:32:27.808Z,4.70
2019-02-12T01:34:55.316Z,4.87
2019-02-12T01:37:23.171Z,5.57
2019-02-12T01:39:51.232Z,5.20
2019-02-12T01:42:18.739Z,5.17
2019-02-12T01:44:46.434Z,5.17
2019-02-12T01:47:14.208Z,4.97
2019-02-12T01:49:41.689Z,5.50
2019-02-12T01:52:09.051Z,5.40
2019-02-12T01:54:36.682Z,5.40
2019-02-12T01:57:04.185Z,5.37
2019-02-12T01:59:31.560Z,4.90
2019-02-12T02:01:59.024Z,6.23
2019-02-12T02:04:26.388Z,5.67
2019-02-12T02:06:53.880Z,5.80
2019-02-12T02:09:21.339Z,4.93
2019-02-12T02:11:49.083Z,4.73
2019-02-12T02:14:16.559Z,5.03
2019-02-12T02:16:44.543Z,5.57
2019-02-12T02:19:12.383Z,6.17
2019-02-12T02:21:44.167Z,5.87
2019-02-12T02:24:09.641Z,5.43
2019-02-12T02:26:37.291Z,5.30
2019-02-12T02:29:04.891Z,4.67
2019-02-12T02:31:32.459Z,5.13
2019-02-12T02:33:59.963Z,5.33
2019-02-12T02:36:27.429Z,4.77
2019-02-12T02:38:55.034Z,5.50
2019-02-12T02:41:22.519Z,4.80
2019-02-12T02:43:49.952Z,5.90
2019-02-12T02:46:17.521Z,4.33
2019-02-12T02:48:45.013Z,4.23
2019-02-12T02:51:12.621Z,4.87
2019-02-12T02:53:40.106Z,5.53
2019-02-12T02:56:07.588Z,5.10
2019-02-12T02:58:37.060Z,5.43
2019-02-12T03:01:04.635Z,5.97
2019-02-12T03:03:32.221Z,4.87
2019-02-12T03:05:59.983Z,6.07
2019-02-12T03:08:27.496Z,4.53
2019-02-12T03:10:54.988Z,3.87
2019-02-12T03:13:22.520Z,4.27
2019-02-12T03:15:49.988Z,4.00
2019-02-12T03:18:17.448Z,4.97
2019-02-12T03:20:46.904Z,5.27
2019-02-12T03:23:14.344Z,4.40
2019-02-12T03:25:41.848Z,5.77
2019-02-12T03:28:09.708Z,4.53
2019-02-12T03:30:37.087Z,4.53
2019-02-12T03:33:04.789Z,5.20
2019-02-12T03:35:32.487Z,5.10
2019-02-12T03:37:59.947Z,4.67
2019-02-12T03:40:27.460Z,4.83
2019-02-12T03:42:54.980Z,4.77
2019-02-12T03:45:22.775Z,4.20
2019-02-12T03:47:50.296Z,4.53
2019-02-12T03:50:17.764Z,4.20
2019-02-12T03:52:45.239Z,4.43
2019-02-12T03:55:12.790Z,4.67
2019-02-12T03:57:40.666Z,5.23
2019-02-12T04:00:11.110Z,5.23
2019-02-12T04:02:57.900Z,5.03
2019-02-12T04:05:25.528Z,4.87
2019-02-12T04:07:53.018Z,5.37
2019-02-12T04:10:20.512Z,4.57
2019-02-12T04:12:48.020Z,5.00
2019-02-12T04:15:15.539Z,4.87
2019-02-12T04:17:43.034Z,5.53
2019-02-12T04:20:10.623Z,4.53
2019-02-12T04:22:38.063Z,4.37
2019-02-12T04:25:05.689Z,5.30
2019-02-12T04:27:33.262Z,6.30
2019-02-12T04:30:00.759Z,5.00
2019-02-12T04:32:28.254Z,5.27
2019-02-12T04:34:55.698Z,4.77
2019-02-12T04:37:23.165Z,4.83
2019-02-12T04:39:50.683Z,5.13
2019-02-12T04:42:18.031Z,4.77
2019-02-12T04:44:45.936Z,5.27
2019-02-12T04:47:13.458Z,4.50
2019-02-12T04:49:40.949Z,4.47
2019-02-12T04:52:08.508Z,5.40
2019-02-12T04:54:36.356Z,4.93
2019-02-12T04:57:03.896Z,5.60
2019-02-12T04:59:31.620Z,5.20
2019-02-12T05:01:59.194Z,5.10
2019-02-12T05:04:26.900Z,4.83
2019-02-12T05:06:54.415Z,5.30
2019-02-12T05:09:22.144Z,4.67
2019-02-12T05:11:58.049Z,5.57
2019-02-12T05:14:25.533Z,4.37
2019-02-12T05:16:53.305Z,5.07
2019-02-12T05:19:20.785Z,4.13
2019-02-12T05:21:48.305Z,5.67
2019-02-12T05:24:16.075Z,4.17
2019-02-12T05:26:43.623Z,4.47
2019-02-12T05:29:11.145Z,4.50
2019-02-12T05:31:38.604Z,6.00
2019-02-12T05:34:06.088Z,3.60
2019-02-12T05:36:33.619Z,4.37
2019-02-12T05:39:01.217Z,5.10
2019-02-12T05:41:29.975Z,4.30
2019-02-12T05:43:58.368Z,4.10
2019-02-12T05:46:25.875Z,3.97
2019-02-12T05:48:53.356Z,3.93
2019-02-12T05:51:21.166Z,4.97
2019-02-12T05:53:48.702Z,4.30
2019-02-12T05:56:16.050Z,5.00
2019-02-12T05:58:43.540Z,4.07
2019-02-12T06:01:10.979Z,4.33
2019-02-12T06:03:38.489Z,3.90
2019-02-12T06:06:05.951Z,3.77
2019-02-12T06:08:33.276Z,4.30
2019-02-12T06:11:00.623Z,4.37
2019-02-12T06:13:28.135Z,4.77
2019-02-12T06:15:55.511Z,4.97
2019-02-12T06:18:22.981Z,4.50
2019-02-12T06:20:50.473Z,5.03
2019-02-12T06:23:17.948Z,7.57
2019-02-12T06:25:45.464Z,7.60
2019-02-12T06:28:12.945Z,7.43
2019-02-12T06:30:40.563Z,7.87
2019-02-12T06:33:08.218Z,6.67
2019-02-12T06:35:35.536Z,5.50
2019-02-12T06:38:03.055Z,4.00
2019-02-12T06:40:30.403Z,4.47
2019-02-12T06:42:58.030Z,4.40
2019-02-12T06:45:25.484Z,4.30
2019-02-12T06:47:52.930Z,4.10
2019-02-12T06:50:20.476Z,3.73
2019-02-12T06:52:48.056Z,6.40
2019-02-12T06:55:15.489Z,4.27
2019-02-12T06:57:42.872Z,4.13
2019-02-12T07:00:10.403Z,3.73
2019-02-12T07:03:15.841Z,3.93
2019-02-12T07:06:07.811Z,3.63
2019-02-12T07:08:51.933Z,4.60
2019-02-12T07:11:50.924Z,4.40
2019-02-12T07:14:54.692Z,4.07
2019-02-12T07:17:48.959Z,4.10
2019-02-12T07:20:46.131Z,4.17
2019-02-12T07:23:57.889Z,4.37
2019-02-12T07:27:07.044Z,4.77
2019-02-12T07:30:28.608Z,4.97
2019-02-12T07:34:02.518Z,4.63
2019-02-12T07:36:59.539Z,4.33
2019-02-12T07:39:57.403Z,4.33
2019-02-12T07:42:55.358Z,5.23
2019-02-12T07:45:56.319Z,4.53
2019-02-12T07:49:01.571Z,4.53
2019-02-12T07:52:01.275Z,4.63
2019-02-12T07:54:44.333Z,4.70
2019-02-12T07:58:01.834Z,3.93
2019-02-12T08:01:07.798Z,4.43
2019-02-12T08:04:26.146Z,4.20
2019-02-12T08:07:12.021Z,4.47
2019-02-12T08:10:30.322Z,4.37
2019-02-12T08:13:45.578Z,4.60
2019-02-12T08:16:46.184Z,4.20
2019-02-12T08:20:10.753Z,4.50
2019-02-12T08:23:23.780Z,4.43
2019-02-12T08:26:17.905Z,4.50
2019-02-12T08:29:13.572Z,5.00
2019-02-12T08:31:52.547Z,5.07
2019-02-12T08:34:50.596Z,5.00
2019-02-12T08:37:36.529Z,5.30
2019-02-12T08:40:44.657Z,4.83
2019-02-12T08:43:38.405Z,4.77
2019-02-12T08:46:24.771Z,5.97
2019-02-12T08:49:37.036Z,4.90
2019-02-12T08:52:46.512Z,5.07
2019-02-12T08:55:46.152Z,3.87
2019-02-12T08:58:38.177Z,4.63
2019-02-12T09:01:45.812Z,4.27
2019-02-12T09:04:38.319Z,4.10
2019-02-12T09:07:56.887Z,3.60
2019-02-12T09:11:01.873Z,4.00
2019-02-12T09:13:47.077Z,4.13
2019-02-12T09:17:20.576Z,3.60
2019-02-12T09:20:29.932Z,3.37
2019-02-12T09:23:47.375Z,3.53
2019-02-12T09:26:57.512Z,3.40
2019-02-12T09:30:02.428Z,4.20
2019-02-12T09:33:13.826Z,3.57
2019-02-12T09:36:32.430Z,3.33
2019-02-12T09:39:37.481Z,2.90
2019-02-12T09:42:26.791Z,3.33
2019-02-12T09:45:25.806Z,3.07
2019-02-12T09:48:24.528Z,2.90
2019-02-12T09:51:05.650Z,3.03
2019-02-12T09:53:57.506Z,2.73
2019-02-12T09:57:00.793Z,2.70
2019-02-12T10:00:08.209Z,2.30
2019-02-12T10:03:26.832Z,2.03
2019-02-12T10:06:35.197Z,2.20
2019-02-12T10:09:37.415Z,2.70
2019-02-12T10:12:27.563Z,1.87
2019-02-12T10:15:24.646Z,1.70
2019-02-12T10:18:49.639Z,2.00
2019-02-12T10:22:07.163Z,1.37
2019-02-12T10:25:11.788Z,2.00
2019-02-12T10:28:13.533Z,2.13
2019-02-12T10:31:06.554Z,1.70
2019-02-12T10:33:35.281Z,1.67
2019-02-12T10:36:02.965Z,1.40
2019-02-12T10:38:30.388Z,1.63
2019-02-12T10:40:57.959Z,1.90
2019-02-12T10:43:25.476Z,1.27
2019-02-12T10:45:53.093Z,1.73
2019-02-12T10:48:20.529Z,1.80
2019-02-12T10:50:48.078Z,1.80
2019-02-12T10:53:15.561Z,1.90
2019-02-12T10:55:43.178Z,1.80
2019-02-12T10:58:10.650Z,1.87
2019-02-12T11:00:38.266Z,1.93
2019-02-12T11:03:06.258Z,1.47
2019-02-12T11:05:33.764Z,1.20
2019-02-12T11:08:01.223Z,1.87
2019-02-12T11:10:29.938Z,1.40
2019-02-12T11:12:57.420Z,1.67
2019-02-12T11:15:24.926Z,2.20
2019-02-12T11:17:52.380Z,2.43
2019-02-12T11:20:19.853Z,1.47
2019-02-12T11:22:47.567Z,1.37
2019-02-12T11:25:15.535Z,1.60
2019-02-12T11:27:43.041Z,1.40
2019-02-12T11:30:10.483Z,2.43
2019-02-12T11:32:38.012Z,1.43
2019-02-12T11:35:06.023Z,1.57
2019-02-12T11:37:34.579Z,1.87
2019-02-12T11:40:02.046Z,1.40
2019-02-12T11:42:30.195Z,1.70
2019-02-12T11:44:57.703Z,1.73
2019-02-12T11:47:25.160Z,1.50
2019-02-12T11:49:52.790Z,1.80
2019-02-12T11:52:20.589Z,1.13
2019-02-12T11:54:48.192Z,1.90
2019-02-12T11:57:15.969Z,1.93
2019-02-12T11:59:43.526Z,1.80
2019-02-12T12:02:11.009Z,1.37
2019-02-12T12:04:38.564Z,1.70
2019-02-12T12:07:06.164Z,2.43
2019-02-12T12:09:33.658Z,2.30
2019-02-12T12:12:01.193Z,1.47
2019-02-12T12:14:28.691Z,6.63
2019-02-12T12:16:56.097Z,1.60
2019-02-12T12:19:23.582Z,3.67
2019-02-12T12:21:51.401Z,2.00
2019-02-12T12:24:19.029Z,2.37
2019-02-12T12:26:46.877Z,1.53
2019-02-12T12:29:14.371Z,1.40
2019-02-12T12:31:41.883Z,2.43
2019-02-12T12:34:09.690Z,1.80
2019-02-12T12:36:37.146Z,1.60
2019-02-12T12:39:05.368Z,2.23
2019-02-12T12:41:34.792Z,2.47
2019-02-12T12:44:02.672Z,1.93
2019-02-12T12:46:30.879Z,1.80
2019-02-12T12:48:59.292Z,2.00
2019-02-12T12:51:27.872Z,1.60
2019-02-12T12:53:55.329Z,3.60
2019-02-12T12:56:22.787Z,3.40
2019-02-12T12:58:50.347Z,1.80
2019-02-12T13:01:17.788Z,1.70
2019-02-12T13:03:45.239Z,1.80
2019-02-12T13:06:12.796Z,2.37
2019-02-12T13:08:40.299Z,4.23
2019-02-12T13:11:07.789Z,2.57
2019-02-12T13:13:35.282Z,2.70
2019-02-12T13:16:03.082Z,2.13
2019-02-12T13:18:30.831Z,2.00
2019-02-12T13:20:58.515Z,1.87
2019-02-12T13:23:26.025Z,1.70
2019-02-12T13:25:53.468Z,3.93
2019-02-12T13:28:20.940Z,2.53
2019-02-12T13:30:48.540Z,1.87
2019-02-12T13:33:16.032Z,1.90
2019-02-12T13:35:43.521Z,2.40
2019-02-12T13:38:11.055Z,2.67
2019-02-12T13:40:38.901Z,2.47
2019-02-12T13:43:06.595Z,2.23
2019-02-12T13:45:34.087Z,2.10
2019-02-12T13:48:03.457Z,2.73
2019-02-12T13:50:31.591Z,2.87
2019-02-12T13:52:59.481Z,2.07
2019-02-12T13:55:27.026Z,2.20
2019-02-12T13:57:54.605Z,1.60
2019-02-12T14:00:22.366Z,2.27
2019-02-12T14:02:49.883Z,2.57
2019-02-12T14:05:17.642Z,2.20
2019-02-12T14:07:45.259Z,2.70
2019-02-12T14:10:13.309Z,2.20
2019-02-12T14:12:41.955Z,1.50
2019-02-12T14:15:10.582Z,2.03
2019-02-12T14:17:38.539Z,2.33
2019-02-12T14:20:08.264Z,2.20
2019-02-12T14:22:35.919Z,1.90
2019-02-12T14:25:04.297Z,2.50
2019-02-12T14:27:32.936Z,2.20
2019-02-12T14:30:00.454Z,1.70
2019-02-12T14:32:27.941Z,1.40
2019-02-12T14:34:55.419Z,1.93
2019-02-12T14:37:22.971Z,1.73
2019-02-12T14:39:50.520Z,1.90
2019-02-12T14:42:18.298Z,2.53
2019-02-12T14:44:45.830Z,1.90
2019-02-12T14:47:13.320Z,1.67
2019-02-12T14:49:40.760Z,2.13
2019-02-12T14:52:08.276Z,1.80
2019-02-12T14:54:35.748Z,1.70
2019-02-12T14:57:03.127Z,2.00
2019-02-12T14:59:31.357Z,1.90
2019-02-12T15:01:58.890Z,1.70
2019-02-12T15:04:26.359Z,2.03
2019-02-12T15:06:53.876Z,1.93
2019-02-12T15:09:22.474Z,3.50
2019-02-12T15:11:50.314Z,1.90
2019-02-12T15:14:18.256Z,2.10
2019-02-12T15:16:45.723Z,2.23
2019-02-12T15:19:13.281Z,2.10
2019-02-12T15:21:40.875Z,2.10
2019-02-12T15:24:08.491Z,2.60
2019-02-12T15:26:35.987Z,2.13
2019-02-12T15:29:03.494Z,2.77
2019-02-12T15:31:31.122Z,3.03
2019-02-12T15:33:58.604Z,3.47
2019-02-12T15:36:26.098Z,5.57
2019-02-12T15:46:21.107Z,2.03
2019-02-12T15:48:48.507Z,2.03
2019-02-12T15:51:15.962Z,2.93
2019-02-12T15:53:43.896Z,2.30
2019-02-12T15:56:11.353Z,1.90
2019-02-12T15:58:38.943Z,1.70
2019-02-12T16:01:06.494Z,1.80
2019-02-12T16:03:37.724Z,1.70
2019-02-12T16:06:05.742Z,2.30
2019-02-12T16:08:33.159Z,2.00
2019-02-12T16:11:00.670Z,2.13
2019-02-12T16:13:28.277Z,1.83
2019-02-12T16:15:55.770Z,2.07
2019-02-12T16:18:24.817Z,1.90
2019-02-12T16:20:52.943Z,2.50
2019-02-12T16:23:21.766Z,2.40
2019-02-12T16:25:49.518Z,1.97
2019-02-12T16:28:16.988Z,2.87
2019-02-12T16:30:44.469Z,2.10
2019-02-12T16:33:11.975Z,1.93
2019-02-12T16:35:39.816Z,2.50
2019-02-12T16:38:07.222Z,1.77
2019-02-12T16:40:34.647Z,2.47
2019-02-12T16:43:02.019Z,2.27
2019-02-12T16:45:43.130Z,3.07
2019-02-12T16:48:10.606Z,3.90
2019-02-12T16:50:39.171Z,3.30
2019-02-12T16:53:06.751Z,2.77
2019-02-12T16:55:34.265Z,2.20
2019-02-12T16:58:01.785Z,2.50
2019-02-12T17:00:29.328Z,1.83
2019-02-12T17:02:57.039Z,1.93
2019-02-12T17:05:24.649Z,2.70
2019-02-12T17:07:52.228Z,2.23
2019-02-12T17:10:20.149Z,2.90
2019-02-12T17:12:47.607Z,3.00
2019-02-12T17:15:15.266Z,4.33
2019-02-12T17:17:42.990Z,5.87
2019-02-12T17:20:13.257Z,7.23
2019-02-12T17:22:42.533Z,9.53
2019-02-12T17:25:10.118Z,8.90
2019-02-12T17:27:38.541Z,7.70
2019-02-12T17:30:07.901Z,7.17
2019-02-12T17:32:35.516Z,6.53
2019-02-12T17:35:02.994Z,5.20
2019-02-12T17:37:31.690Z,5.63
2019-02-12T17:39:59.143Z,5.53
2019-02-12T17:42:26.809Z,6.13
2019-02-12T17:44:54.281Z,7.03
2019-02-12T17:47:21.773Z,8.43
2019-02-12T17:49:50.312Z,10.83
2019-02-12T17:52:17.769Z,9.70
2019-02-12T17:54:45.407Z,8.97
2019-02-12T17:57:12.849Z,7.10
2019-02-12T17:59:40.340Z,7.30
2019-02-12T18:02:08.326Z,7.50
2019-02-12T18:04:35.775Z,6.77
2019-02-12T18:07:03.291Z,7.40
2019-02-12T18:09:30.739Z,7.17
2019-02-12T18:11:58.216Z,7.40
2019-02-12T18:14:25.664Z,6.83
2019-02-12T18:16:53.081Z,7.83
2019-02-12T18:19:20.454Z,7.07
2019-02-12T18:21:47.805Z,6.00
2019-02-12T18:24:15.392Z,5.37
2019-02-12T18:26:43.614Z,5.37
2019-02-12T18:29:11.124Z,5.07
2019-02-12T18:31:38.826Z,6.27
2019-02-12T18:34:06.350Z,9.37
2019-02-12T18:36:33.799Z,9.97
2019-02-12T18:39:01.305Z,8.67
2019-02-12T18:41:30.642Z,8.67
2019-02-12T18:43:57.985Z,7.67
2019-02-12T18:46:25.473Z,8.80
2019-02-12T18:48:52.967Z,8.30
2019-02-12T18:51:20.520Z,9.00
2019-02-12T18:53:48.112Z,9.60
2019-02-12T18:56:15.578Z,9.97
2019-02-12T18:58:43.280Z,11.40
2019-02-12T19:01:10.730Z,11.40
2019-02-12T19:03:38.408Z,11.03
2019-02-12T19:06:06.134Z,11.73
2019-02-12T19:08:33.719Z,13.00
2019-02-12T19:11:01.446Z,12.77
2019-02-12T19:13:29.128Z,11.23
2019-02-12T19:15:56.674Z,9.77
2019-02-12T19:18:25.698Z,10.77
2019-02-12T19:20:53.133Z,9.73
2019-02-12T19:23:20.684Z,7.90
2019-02-12T19:25:48.136Z,7.83
2019-02-12T19:28:15.568Z,6.47
2019-02-12T19:30:43.031Z,6.80
2019-02-12T19:33:10.477Z,7.20
2019-02-12T19:35:37.961Z,9.23
2019-02-12T19:38:05.371Z,9.03
2019-02-12T19:40:34.155Z,11.73
2019-02-12T19:43:01.757Z,13.30
2019-02-12T19:45:29.905Z,14.63
2019-02-12T19:47:57.378Z,14.37
2019-02-12T19:50:24.834Z,14.70
2019-02-12T19:52:52.381Z,14.37
2019-02-12T19:55:20.279Z,13.57
2019-02-12T19:57:47.795Z,12.77
2019-02-12T20:00:18.665Z,11.63
2019-02-12T20:02:46.154Z,9.60
2019-02-12T20:05:13.622Z,9.07
2019-02-12T20:07:41.154Z,8.90
2019-02-12T20:10:08.651Z,9.73
2019-02-12T20:12:36.176Z,9.43
2019-02-12T20:15:04.575Z,9.83
2019-02-12T20:17:32.192Z,11.53
2019-02-12T20:19:59.806Z,11.83
2019-02-12T20:22:27.211Z,14.00
2019-02-12T20:24:54.897Z,17.57
2019-02-12T20:27:22.396Z,15.07
2019-02-12T20:29:50.014Z,14.87
2019-02-12T20:32:17.492Z,13.77
2019-02-12T20:34:45.004Z,15.50
2019-02-12T20:37:12.710Z,15.77
2019-02-12T20:39:40.338Z,15.07
2019-02-12T20:42:07.843Z,13.77
2019-02-12T20:44:35.345Z,14.30
2019-02-12T20:47:04.004Z,12.13
2019-02-12T20:49:31.628Z,12.00
2019-02-12T20:51:59.154Z,10.37
2019-02-12T20:54:26.663Z,9.03
2019-02-12T20:56:54.559Z,7.80
2019-02-12T20:59:22.386Z,8.13
2019-02-12T21:01:49.917Z,7.50
2019-02-12T21:04:17.407Z,7.27
2019-02-12T21:06:45.039Z,6.70
2019-02-12T21:09:12.794Z,7.43
2019-02-12T21:11:40.589Z,8.93
2019-02-12T21:14:08.056Z,14.30
2019-02-12T21:16:35.515Z,14.80
2019-02-12T21:19:02.995Z,14.97
2019-02-12T21:21:30.455Z,13.77
2019-02-12T21:23:58.050Z,15.37
2019-02-12T21:26:25.544Z,12.27
2019-02-12T21:28:53.002Z,12.47
2019-02-12T21:31:20.337Z,12.30
2019-02-12T21:33:47.834Z,11.07
2019-02-12T21:36:15.395Z,11.07
2019-02-12T21:38:43.325Z,11.77
2019-02-12T21:41:11.908Z,13.60
2019-02-12T21:43:39.348Z,9.50
2019-02-12T21:46:06.843Z,7.87
2019-02-12T21:48:34.482Z,9.10
2019-02-12T21:51:01.987Z,8.80
2019-02-12T21:53:30.111Z,8.73
2019-02-12T21:55:57.819Z,8.47
2019-02-12T21:58:25.652Z,7.73
2019-02-12T22:00:53.172Z,8.93
2019-02-12T22:03:21.401Z,8.73
2019-02-12T22:05:48.978Z,8.33
2019-02-12T22:08:16.436Z,7.30
2019-02-12T22:10:46.336Z,7.60
2019-02-12T22:13:13.201Z,9.20
2019-02-12T22:15:40.665Z,9.83
2019-02-12T22:18:08.020Z,8.50
2019-02-12T22:20:35.930Z,9.43
2019-02-12T22:23:03.643Z,8.20
2019-02-12T22:25:31.517Z,9.90
2019-02-12T22:28:00.164Z,8.97
2019-02-12T22:30:28.596Z,9.40
2019-02-12T22:32:56.201Z,9.80
2019-02-12T22:35:23.653Z,9.67
2019-02-12T22:37:51.158Z,9.27
2019-02-12T22:40:18.637Z,7.60
2019-02-12T22:42:46.132Z,8.07
2019-02-12T22:45:15.365Z,9.67
2019-02-12T22:47:45.270Z,8.50
2019-02-12T22:50:13.156Z,8.00
2019-02-12T22:52:40.672Z,6.07
2019-02-12T22:55:08.182Z,7.03
2019-02-12T22:57:35.629Z,6.60
2019-02-12T23:00:10.187Z,7.53
2019-02-12T23:02:39.208Z,6.30
2019-02-12T23:05:06.850Z,7.17
2019-02-12T23:07:34.455Z,6.30
2019-02-12T23:10:02.048Z,5.90
2019-02-12T23:12:31.787Z,6.40
2019-02-12T23:14:59.469Z,6.33
2019-02-12T23:17:26.928Z,6.40
2019-02-12T23:19:54.379Z,5.53
2019-02-12T23:22:21.832Z,5.70
2019-02-12T23:24:49.291Z,6.07
2019-02-12T23:27:17.296Z,6.97
2019-02-12T23:29:44.798Z,6.67
2019-02-12T23:32:12.318Z,6.77
2019-02-12T23:34:39.893Z,6.63
2019-02-12T23:37:08.631Z,6.57
2019-02-12T23:39:37.808Z,7.00
2019-02-12T23:42:05.676Z,7.53
2019-02-12T23:44:33.184Z,14.80
2019-02-12T23:47:00.674Z,15.97
2019-02-12T23:49:28.166Z,17.67
2019-02-12T23:51:56.521Z,17.80
2019-02-12T23:54:24.340Z,13.47
2019-02-12T23:56:51.800Z,8.70
2019-02-12T23:59:19.282Z,10.83
